createdAt,value
2023-05-05T00:01:09.073Z,101402.22
2023-05-05T00:03:35.843Z,101414.75
2023-05-05T00:06:03.130Z,101410.03
2023-05-05T00:08:29.819Z,101413.56
2023-05-05T00:10:57.517Z,101406.88
2023-05-05T00:13:24.673Z,101410.69
2023-05-05T00:15:53.434Z,101402.69
2023-05-05T00:18:21.058Z,101400.72
2023-05-05T00:20:48.456Z,101398.63
2023-05-05T00:23:20.040Z,101403.75
2023-05-05T00:25:46.766Z,101412.81
2023-05-05T00:28:14.312Z,101409.22
2023-05-05T00:30:40.962Z,101406.44
2023-05-05T00:33:07.468Z,101413.72
2023-05-05T00:35:34.136Z,101413.28
2023-05-05T00:38:00.650Z,101417.47
2023-05-05T00:40:27.629Z,101423.63
2023-05-05T00:42:54.268Z,101433.06
2023-05-05T00:45:21.020Z,101431.91
2023-05-05T00:47:54.803Z,101426.00
2023-05-05T00:50:26.342Z,101435.00
2023-05-05T00:52:55.348Z,101424.47
2023-05-05T00:55:22.189Z,101422.47
2023-05-05T00:57:49.601Z,101415.44
2023-05-05T01:00:16.950Z,101418.63
2023-05-05T01:02:44.337Z,101423.31
2023-05-05T01:05:13.320Z,101414.38
2023-05-05T01:08:04.612Z,101424.56
2023-05-05T01:10:48.786Z,101427.25
2023-05-05T01:13:34.152Z,101429.69
2023-05-05T01:16:22.942Z,101433.56
2023-05-05T01:19:17.235Z,101432.00
2023-05-05T01:21:48.672Z,101435.56
2023-05-05T01:24:39.504Z,101437.22
2023-05-05T01:27:31.052Z,101447.75
2023-05-05T01:30:26.611Z,101449.31
2023-05-05T01:32:56.894Z,101449.69
2023-05-05T01:35:37.732Z,101455.25
2023-05-05T01:38:34.705Z,101461.59
2023-05-05T01:41:13.359Z,101456.03
2023-05-05T01:43:43.923Z,101464.69
2023-05-05T01:46:11.680Z,101460.34
2023-05-05T01:48:41.059Z,101470.44
2023-05-05T01:51:10.458Z,101484.31
2023-05-05T01:53:38.441Z,101488.34
2023-05-05T01:56:05.674Z,101469.41
2023-05-05T01:58:33.670Z,101450.81
2023-05-05T02:01:01.786Z,101436.59
2023-05-05T02:03:30.434Z,101433.88
2023-05-05T02:05:58.535Z,101422.63
2023-05-05T02:08:26.207Z,101432.41
2023-05-05T02:10:54.535Z,101431.75
2023-05-05T02:13:23.461Z,101444.31
2023-05-05T02:15:51.159Z,101454.47
2023-05-05T02:18:18.609Z,101466.13
2023-05-05T02:20:47.016Z,101456.63
2023-05-05T02:23:13.520Z,101455.75
2023-05-05T02:25:46.812Z,101448.03
2023-05-05T02:28:18.476Z,101454.41
2023-05-05T02:30:51.508Z,101453.69
2023-05-05T02:33:20.570Z,101448.28
2023-05-05T02:35:47.297Z,101454.06
2023-05-05T02:38:17.432Z,101448.78
2023-05-05T02:40:46.180Z,101448.13
2023-05-05T02:43:17.022Z,101435.47
2023-05-05T02:45:44.464Z,101438.22
2023-05-05T02:48:12.954Z,101438.22
2023-05-05T02:50:39.536Z,101435.34
2023-05-05T02:53:06.180Z,101434.19
2023-05-05T02:55:50.551Z,101442.97
2023-05-05T02:58:34.061Z,101450.88
2023-05-05T03:01:29.451Z,101458.72
2023-05-05T03:04:07.322Z,101457.38
2023-05-05T03:06:41.123Z,101456.81
2023-05-05T03:09:18.038Z,101458.66
2023-05-05T03:11:50.940Z,101460.34
2023-05-05T03:14:19.744Z,101458.75
2023-05-05T03:16:47.275Z,101462.63
2023-05-05T03:19:17.267Z,101466.94
2023-05-05T03:21:44.131Z,101470.47
2023-05-05T03:24:17.984Z,101470.38
2023-05-05T03:26:46.342Z,101472.63
2023-05-05T03:29:13.776Z,101473.25
2023-05-05T03:31:40.552Z,101466.91
2023-05-05T03:34:07.449Z,101464.63
2023-05-05T03:36:35.152Z,101455.84
2023-05-05T03:39:01.671Z,101465.53
2023-05-05T03:41:28.355Z,101466.97
2023-05-05T03:43:54.822Z,101474.00
2023-05-05T03:46:21.469Z,101471.72
2023-05-05T03:48:48.559Z,101488.25
2023-05-05T03:51:15.128Z,101496.91
2023-05-05T03:53:41.794Z,101504.28
2023-05-05T03:56:08.372Z,101497.31
2023-05-05T03:58:34.961Z,101494.97
2023-05-05T04:01:01.796Z,101503.25
2023-05-05T04:03:28.354Z,101515.31
2023-05-05T04:05:54.860Z,101512.50
2023-05-05T04:08:21.554Z,101510.91
2023-05-05T04:10:48.101Z,101517.50
2023-05-05T04:13:14.696Z,101518.09
2023-05-05T04:15:46.039Z,101521.19
2023-05-05T04:18:12.754Z,101533.34
2023-05-05T04:20:39.319Z,101535.38
2023-05-05T04:23:05.892Z,101535.28
2023-05-05T04:25:32.682Z,101536.16
2023-05-05T04:27:59.199Z,101547.63
2023-05-05T04:30:25.645Z,101547.25
2023-05-05T04:32:52.169Z,101548.84
2023-05-05T04:35:18.801Z,101550.41
2023-05-05T04:37:45.273Z,101547.63
2023-05-05T04:40:12.051Z,101542.06
2023-05-05T04:42:38.558Z,101547.34
2023-05-05T04:45:05.549Z,101548.66
2023-05-05T04:47:32.087Z,101545.06
2023-05-05T04:49:58.590Z,101548.47
2023-05-05T04:52:25.019Z,101552.44
2023-05-05T04:54:51.578Z,101554.91
2023-05-05T04:57:18.055Z,101557.47
2023-05-05T04:59:44.607Z,101558.06
2023-05-05T05:02:11.078Z,101563.81
2023-05-05T05:04:37.588Z,101568.66
2023-05-05T05:07:04.141Z,101570.34
2023-05-05T05:09:30.598Z,101573.94
2023-05-05T05:12:01.065Z,101573.06
2023-05-05T05:14:28.206Z,101576.25
2023-05-05T05:16:54.937Z,101583.38
2023-05-05T05:19:21.687Z,101574.03
2023-05-05T05:21:48.156Z,101584.50
2023-05-05T05:24:14.583Z,101581.94
2023-05-05T05:26:41.270Z,101585.09
2023-05-05T05:29:07.761Z,101580.94
2023-05-05T05:31:34.603Z,101583.16
2023-05-05T05:34:01.147Z,101592.59
2023-05-05T05:36:27.580Z,101591.00
2023-05-05T05:38:54.060Z,101596.19
2023-05-05T05:41:21.602Z,101590.28
2023-05-05T05:43:48.042Z,101585.69
2023-05-05T05:46:14.758Z,101585.06
2023-05-05T05:48:41.449Z,101589.38
2023-05-05T05:51:08.031Z,101600.47
2023-05-05T05:53:34.484Z,101591.41
2023-05-05T05:56:01.509Z,101591.56
2023-05-05T05:58:27.970Z,101590.13
2023-05-05T06:00:54.592Z,101589.50
2023-05-05T06:03:21.236Z,101579.72
2023-05-05T06:05:47.802Z,101604.59
2023-05-05T06:08:14.234Z,101591.81
2023-05-05T06:10:41.094Z,101605.47
2023-05-05T06:13:07.700Z,101601.91
2023-05-05T06:15:34.258Z,101606.25
2023-05-05T06:18:00.793Z,101601.59
2023-05-05T06:20:27.553Z,101595.03
2023-05-05T06:22:53.993Z,101599.59
2023-05-05T06:25:20.538Z,101608.38
2023-05-05T06:27:47.032Z,101615.13
2023-05-05T06:30:14.687Z,101614.69
2023-05-05T06:32:41.244Z,101624.19
2023-05-05T06:35:08.206Z,101616.06
2023-05-05T06:37:37.703Z,101619.94
2023-05-05T06:40:04.958Z,101619.16
2023-05-05T06:42:32.197Z,101616.78
2023-05-05T06:44:58.656Z,101615.22
2023-05-05T06:47:25.278Z,101615.28
2023-05-05T06:49:51.912Z,101609.25
2023-05-05T06:52:18.475Z,101614.22
2023-05-05T06:54:44.924Z,101615.06
2023-05-05T06:57:11.653Z,101623.00
2023-05-05T06:59:38.105Z,101636.09
2023-05-05T07:02:04.628Z,101630.81
2023-05-05T07:04:31.597Z,101635.53
2023-05-05T07:06:58.443Z,101634.03
2023-05-05T07:09:25.124Z,101627.47
2023-05-05T07:11:51.778Z,101633.63
2023-05-05T07:14:18.196Z,101625.53
2023-05-05T07:16:44.699Z,101625.69
2023-05-05T07:19:11.126Z,101633.41
2023-05-05T07:21:37.684Z,101643.34
2023-05-05T07:24:04.232Z,101643.22
2023-05-05T07:26:31.457Z,101639.03
2023-05-05T07:28:58.868Z,101639.97
2023-05-05T07:31:26.360Z,101648.97
2023-05-05T07:33:52.952Z,101656.75
2023-05-05T07:36:19.665Z,101655.75
2023-05-05T07:38:46.153Z,101657.53
2023-05-05T07:41:13.022Z,101645.41
2023-05-05T07:43:44.541Z,101648.31
2023-05-05T07:46:11.673Z,101644.63
2023-05-05T07:48:41.657Z,101644.88
2023-05-05T07:51:08.485Z,101638.66
2023-05-05T07:53:35.053Z,101648.84
2023-05-05T07:56:01.520Z,101646.88
2023-05-05T07:58:28.056Z,101635.59
2023-05-05T08:00:54.568Z,101639.91
2023-05-05T08:03:24.324Z,101642.75
2023-05-05T08:05:54.019Z,101638.50
2023-05-05T08:08:24.424Z,101637.78
2023-05-05T08:10:52.909Z,101646.53
2023-05-05T08:13:19.477Z,101638.44
2023-05-05T08:15:45.953Z,101633.81
2023-05-05T08:18:12.472Z,101644.16
2023-05-05T08:20:38.985Z,101647.22
2023-05-05T08:23:05.587Z,101641.34
2023-05-05T08:25:32.020Z,101640.97
2023-05-05T08:27:58.511Z,101641.47
2023-05-05T08:30:25.069Z,101645.13
2023-05-05T08:32:51.604Z,101649.50
2023-05-05T08:35:18.208Z,101648.38
2023-05-05T08:37:44.871Z,101657.56
2023-05-05T08:40:14.165Z,101653.72
2023-05-05T08:42:41.757Z,101650.03
2023-05-05T08:45:09.968Z,101656.25
2023-05-05T08:47:38.025Z,101667.19
2023-05-05T08:50:08.336Z,101665.06
2023-05-05T08:52:40.949Z,101663.41
2023-05-05T08:55:10.222Z,101668.91
2023-05-05T08:57:49.602Z,101668.63
2023-05-05T09:00:18.897Z,101669.81
2023-05-05T09:02:46.576Z,101667.78
2023-05-05T09:05:13.413Z,101661.50
2023-05-05T09:07:44.136Z,101663.19
2023-05-05T09:10:11.943Z,101667.50
2023-05-05T09:12:42.052Z,101668.59
2023-05-05T09:15:13.387Z,101663.88
2023-05-05T09:17:40.977Z,101660.00
2023-05-05T09:20:08.641Z,101664.72
2023-05-05T09:22:38.844Z,101663.41
2023-05-05T09:25:06.725Z,101672.03
2023-05-05T09:27:43.647Z,101673.91
2023-05-05T09:30:12.094Z,101669.56
2023-05-05T09:32:55.118Z,101671.53
2023-05-05T09:35:23.038Z,101672.31
2023-05-05T09:37:49.584Z,101660.25
2023-05-05T09:40:18.152Z,101666.94
2023-05-05T09:42:45.185Z,101662.63
2023-05-05T09:45:17.784Z,101664.25
2023-05-05T09:47:48.513Z,101659.16
2023-05-05T09:50:18.680Z,101667.06
2023-05-05T09:53:00.182Z,101662.34
2023-05-05T09:55:26.738Z,101655.34
2023-05-05T09:57:53.276Z,101665.16
2023-05-05T10:00:20.558Z,101653.78
2023-05-05T10:02:47.642Z,101650.25
2023-05-05T10:05:15.349Z,101645.56
2023-05-05T10:07:47.155Z,101650.28
2023-05-05T10:10:17.216Z,101649.09
2023-05-05T10:12:46.683Z,101651.81
2023-05-05T10:15:15.676Z,101647.44
2023-05-05T10:18:05.148Z,101641.09
2023-05-05T10:20:36.431Z,101645.84
2023-05-05T10:23:07.979Z,101648.97
2023-05-05T10:25:53.309Z,101641.44
2023-05-05T10:28:31.466Z,101642.66
2023-05-05T10:31:00.677Z,101645.41
2023-05-05T10:34:03.494Z,101651.13
2023-05-05T10:36:31.761Z,101649.34
2023-05-05T10:38:59.880Z,101649.69
2023-05-05T10:41:26.989Z,101647.69
2023-05-05T10:43:57.192Z,101662.06
2023-05-05T10:46:25.496Z,101662.66
2023-05-05T10:48:59.256Z,101672.13
2023-05-05T10:51:44.061Z,101674.88
2023-05-05T10:54:20.867Z,101677.31
2023-05-05T10:56:47.387Z,101684.53
2023-05-05T10:59:36.094Z,101679.31
2023-05-05T11:02:25.480Z,101686.47
2023-05-05T11:05:14.336Z,101707.59
2023-05-05T11:07:42.185Z,101720.75
2023-05-05T11:10:10.918Z,101735.53
2023-05-05T11:12:57.765Z,101745.47
2023-05-05T11:15:30.324Z,101751.78
2023-05-05T11:17:58.462Z,101748.66
2023-05-05T11:20:47.933Z,101754.41
2023-05-05T11:23:20.355Z,101771.84
2023-05-05T11:25:47.186Z,101772.00
2023-05-05T11:28:16.299Z,101773.94
2023-05-05T11:30:54.715Z,101768.28
2023-05-05T11:33:25.771Z,101761.91
2023-05-05T11:35:56.360Z,101757.03
2023-05-05T11:38:36.027Z,101754.66
2023-05-05T11:41:33.501Z,101745.44
2023-05-05T11:44:14.298Z,101741.91
2023-05-05T11:47:01.891Z,101737.56
2023-05-05T11:49:39.170Z,101740.31
2023-05-05T11:52:07.401Z,101730.28
2023-05-05T11:54:40.541Z,101723.03
2023-05-05T11:57:08.595Z,101721.69
2023-05-05T11:59:37.472Z,101729.53
2023-05-05T12:02:04.777Z,101722.50
2023-05-05T12:04:32.007Z,101719.84
2023-05-05T12:07:01.651Z,101724.88
2023-05-05T12:09:28.466Z,101730.91
2023-05-05T12:11:56.292Z,101716.47
2023-05-05T12:14:24.614Z,101716.81
2023-05-05T12:16:54.636Z,101715.69
2023-05-05T12:19:21.119Z,101715.91
2023-05-05T12:21:47.647Z,101713.63
2023-05-05T12:24:14.365Z,101715.19
2023-05-05T12:26:41.246Z,101723.38
2023-05-05T12:29:07.798Z,101732.25
2023-05-05T12:31:41.934Z,101728.97
2023-05-05T12:34:10.333Z,101725.78
2023-05-05T12:36:37.549Z,101729.31
2023-05-05T12:39:05.396Z,101729.75
2023-05-05T12:41:32.591Z,101718.63
2023-05-05T12:44:00.045Z,101710.09
2023-05-05T12:46:29.564Z,101708.94
2023-05-05T12:49:04.877Z,101710.19
2023-05-05T12:51:33.026Z,101702.00
2023-05-05T12:54:03.675Z,101704.72
2023-05-05T12:56:34.598Z,101697.56
2023-05-05T12:59:02.495Z,101705.84
2023-05-05T13:01:30.511Z,101710.97
2023-05-05T13:04:10.926Z,101710.63
2023-05-05T13:06:42.858Z,101712.09
2023-05-05T13:09:21.930Z,101711.53
2023-05-05T13:11:48.462Z,101714.72
2023-05-05T13:14:14.964Z,101707.44
2023-05-05T13:16:41.661Z,101717.75
2023-05-05T13:19:08.144Z,101719.44
2023-05-05T13:21:34.627Z,101730.94
2023-05-05T13:24:19.824Z,101736.31
2023-05-05T13:26:48.451Z,101730.06
2023-05-05T13:29:16.429Z,101721.88
2023-05-05T13:31:43.746Z,101729.25
2023-05-05T13:34:10.596Z,101739.25
2023-05-05T13:36:37.619Z,101740.53
2023-05-05T13:39:04.234Z,101736.31
2023-05-05T13:41:30.766Z,101737.09
2023-05-05T13:43:57.368Z,101730.34
2023-05-05T13:46:23.866Z,101745.22
2023-05-05T13:48:52.623Z,101737.41
2023-05-05T13:51:22.789Z,101741.19
2023-05-05T13:53:49.316Z,101739.81
2023-05-05T13:56:15.894Z,101734.38
2023-05-05T13:58:42.758Z,101719.81
2023-05-05T14:01:10.744Z,101718.78
2023-05-05T14:03:39.462Z,101719.44
2023-05-05T14:06:07.468Z,101713.50
2023-05-05T14:08:34.092Z,101708.69
2023-05-05T14:11:00.647Z,101705.59
2023-05-05T14:13:27.152Z,101704.38
2023-05-05T14:15:53.839Z,101699.09
2023-05-05T14:18:20.860Z,101694.34
2023-05-05T14:20:47.428Z,101682.03
2023-05-05T14:23:14.998Z,101672.88
2023-05-05T14:25:41.500Z,101674.09
2023-05-05T14:28:07.985Z,101677.16
2023-05-05T14:30:34.616Z,101670.03
2023-05-05T14:33:01.431Z,101665.03
2023-05-05T14:35:28.038Z,101659.75
2023-05-05T14:37:54.508Z,101659.22
2023-05-05T14:40:21.116Z,101643.94
2023-05-05T14:42:48.503Z,101646.13
2023-05-05T14:45:15.013Z,101659.53
2023-05-05T14:47:41.549Z,101660.69
2023-05-05T14:50:09.843Z,101669.75
2023-05-05T14:52:38.977Z,101670.13
2023-05-05T14:55:06.366Z,101671.34
2023-05-05T14:57:32.924Z,101661.97
2023-05-05T14:59:59.495Z,101669.97
2023-05-05T15:02:26.269Z,101663.06
2023-05-05T15:04:53.127Z,101671.25
2023-05-05T15:07:20.522Z,101672.91
2023-05-05T15:09:47.037Z,101679.09
2023-05-05T15:12:13.659Z,101675.56
2023-05-05T15:14:40.840Z,101679.34
2023-05-05T15:17:07.359Z,101673.28
2023-05-05T15:19:33.796Z,101665.44
2023-05-05T15:22:00.308Z,101670.78
2023-05-05T15:24:26.782Z,101670.59
2023-05-05T15:26:53.309Z,101666.47
2023-05-05T15:29:19.849Z,101666.41
2023-05-05T15:31:46.381Z,101664.44
2023-05-05T15:34:12.892Z,101649.84
2023-05-05T15:36:39.347Z,101651.75
2023-05-05T15:39:05.823Z,101644.84
2023-05-05T15:41:34.562Z,101649.59
2023-05-05T15:44:03.102Z,101659.97
2023-05-05T15:46:33.441Z,101656.88
2023-05-05T15:49:00.148Z,101646.44
2023-05-05T15:51:27.317Z,101648.19
2023-05-05T15:53:53.844Z,101645.34
2023-05-05T15:56:20.506Z,101650.13
2023-05-05T15:58:46.974Z,101647.47
2023-05-05T16:01:13.468Z,101639.34
2023-05-05T16:03:40.008Z,101636.22
2023-05-05T16:06:06.882Z,101633.84
2023-05-05T16:08:33.380Z,101632.38
2023-05-05T16:10:59.858Z,101632.94
2023-05-05T16:13:26.687Z,101638.53
2023-05-05T16:15:53.225Z,101632.56
2023-05-05T16:18:19.688Z,101628.78
2023-05-05T16:20:46.346Z,101624.25
2023-05-05T16:23:12.898Z,101630.28
2023-05-05T16:25:39.371Z,101624.13
2023-05-05T16:28:06.047Z,101616.03
2023-05-05T16:30:32.557Z,101619.31
2023-05-05T16:32:59.056Z,101627.31
2023-05-05T16:35:25.594Z,101623.56
2023-05-05T16:37:52.586Z,101618.28
2023-05-05T16:40:19.261Z,101622.28
2023-05-05T16:42:45.864Z,101621.91
2023-05-05T16:45:12.394Z,101626.03
2023-05-05T16:47:38.962Z,101616.41
2023-05-05T16:50:06.276Z,101632.81
2023-05-05T16:52:32.802Z,101623.56
2023-05-05T16:54:59.246Z,101625.91
2023-05-05T16:57:26.046Z,101633.56
2023-05-05T16:59:56.035Z,101627.53
2023-05-05T17:02:22.868Z,101617.91
2023-05-05T17:04:49.357Z,101624.13
2023-05-05T17:07:15.875Z,101620.28
2023-05-05T17:09:42.330Z,101620.03
2023-05-05T17:12:08.859Z,101632.31
2023-05-05T17:14:35.492Z,101630.09
2023-05-05T17:17:02.099Z,101619.50
2023-05-05T17:19:28.811Z,101624.13
2023-05-05T17:21:55.380Z,101622.78
2023-05-05T17:24:21.924Z,101622.97
2023-05-05T17:26:48.982Z,101627.53
2023-05-05T17:29:19.648Z,101629.53
2023-05-05T17:31:46.901Z,101630.31
2023-05-05T17:34:13.452Z,101623.69
2023-05-05T17:36:40.154Z,101622.63
2023-05-05T17:39:06.597Z,101620.28
2023-05-05T17:41:33.087Z,101624.06
2023-05-05T17:43:59.649Z,101620.91
2023-05-05T17:46:26.424Z,101619.75
2023-05-05T17:48:53.743Z,101620.53
2023-05-05T17:51:20.248Z,101630.16
2023-05-05T17:53:46.731Z,101634.03
2023-05-05T17:56:13.157Z,101629.03
2023-05-05T17:58:39.612Z,101629.50
2023-05-05T18:01:06.226Z,101628.75
2023-05-05T18:03:32.844Z,101636.19
2023-05-05T18:05:59.437Z,101632.31
2023-05-05T18:08:26.909Z,101638.16
2023-05-05T18:10:54.156Z,101642.44
2023-05-05T18:13:21.438Z,101643.47
2023-05-05T18:15:48.024Z,101647.06
2023-05-05T18:18:14.684Z,101647.06
2023-05-05T18:20:41.166Z,101644.66
2023-05-05T18:23:07.681Z,101647.41
2023-05-05T18:25:34.162Z,101644.25
2023-05-05T18:28:00.616Z,101644.56
2023-05-05T18:30:27.211Z,101639.59
2023-05-05T18:32:53.791Z,101640.19
2023-05-05T18:35:21.382Z,101640.78
2023-05-05T18:37:47.960Z,101640.34
2023-05-05T18:40:14.561Z,101643.00
2023-05-05T18:42:41.589Z,101640.56
2023-05-05T18:45:10.626Z,101642.06
2023-05-05T18:47:38.961Z,101646.25
2023-05-05T18:50:06.709Z,101645.63
2023-05-05T18:52:33.698Z,101649.44
2023-05-05T18:55:00.184Z,101658.38
2023-05-05T18:57:27.306Z,101655.19
2023-05-05T18:59:53.786Z,101669.66
2023-05-05T19:02:20.332Z,101663.59
2023-05-05T19:04:46.897Z,101658.41
2023-05-05T19:07:23.911Z,101668.31
2023-05-05T19:09:58.087Z,101662.53
2023-05-05T19:12:24.628Z,101663.16
2023-05-05T19:14:51.175Z,101675.84
2023-05-05T19:17:17.677Z,101673.56
2023-05-05T19:19:44.116Z,101675.47
2023-05-05T19:22:10.600Z,101678.75
2023-05-05T19:24:37.115Z,101689.53
2023-05-05T19:27:03.909Z,101689.78
2023-05-05T19:29:33.813Z,101686.59
2023-05-05T19:32:00.317Z,101696.63
2023-05-05T19:34:26.957Z,101697.59
2023-05-05T19:36:53.474Z,101699.00
2023-05-05T19:39:19.927Z,101695.38
2023-05-05T19:41:46.478Z,101690.72
2023-05-05T19:44:12.986Z,101689.13
2023-05-05T19:46:39.530Z,101699.16
2023-05-05T19:49:06.208Z,101687.75
2023-05-05T19:51:32.799Z,101697.88
2023-05-05T19:53:59.469Z,101693.13
2023-05-05T19:56:26.293Z,101700.09
2023-05-05T19:58:53.603Z,101699.19
2023-05-05T20:01:20.106Z,101696.63
2023-05-05T20:03:46.692Z,101702.69
2023-05-05T20:06:13.289Z,101701.56
2023-05-05T20:08:39.847Z,101708.81
2023-05-05T20:11:06.332Z,101701.34
2023-05-05T20:13:34.329Z,101706.25
2023-05-05T20:16:01.488Z,101706.50
2023-05-05T20:18:27.974Z,101709.03
2023-05-05T20:20:54.493Z,101714.38
2023-05-05T20:23:21.277Z,101713.91
2023-05-05T20:25:48.030Z,101713.38
2023-05-05T20:28:14.533Z,101714.31
2023-05-05T20:30:41.093Z,101724.44
2023-05-05T20:33:07.566Z,101719.78
2023-05-05T20:35:34.661Z,101722.41
2023-05-05T20:38:03.580Z,101726.13
2023-05-05T20:40:30.694Z,101720.81
2023-05-05T20:42:57.468Z,101715.03
2023-05-05T20:45:24.848Z,101711.84
2023-05-05T20:47:51.769Z,101715.16
2023-05-05T20:50:20.527Z,101714.47
2023-05-05T20:52:47.501Z,101713.91
2023-05-05T20:55:14.181Z,101707.66
2023-05-05T20:57:40.706Z,101710.38
2023-05-05T21:00:08.099Z,101695.97
2023-05-05T21:02:34.722Z,101709.03
2023-05-05T21:05:04.304Z,101703.91
2023-05-05T21:07:33.148Z,101701.84
2023-05-05T21:10:00.846Z,101704.84
2023-05-05T21:12:29.101Z,101705.84
2023-05-05T21:14:59.551Z,101702.75
2023-05-05T21:17:27.047Z,101701.28
2023-05-05T21:19:53.963Z,101703.66
2023-05-05T21:22:21.373Z,101707.19
2023-05-05T21:24:48.197Z,101700.69
2023-05-05T21:27:15.002Z,101702.19
2023-05-05T21:29:41.492Z,101711.28
2023-05-05T21:32:10.478Z,101699.69
2023-05-05T21:34:38.359Z,101703.31
2023-05-05T21:37:06.563Z,101699.13
2023-05-05T21:39:33.268Z,101693.22
2023-05-05T21:42:00.638Z,101688.66
2023-05-05T21:44:28.268Z,101686.09
2023-05-05T21:46:55.274Z,101694.03
2023-05-05T21:49:21.780Z,101691.63
2023-05-05T21:51:48.310Z,101689.59
2023-05-05T21:54:14.829Z,101698.88
2023-05-05T21:56:41.384Z,101697.09
2023-05-05T21:59:07.856Z,101700.25
2023-05-05T22:01:34.929Z,101692.63
2023-05-05T22:04:01.594Z,101705.47
2023-05-05T22:06:28.414Z,101707.84
2023-05-05T22:08:56.619Z,101695.44
2023-05-05T22:11:23.445Z,101699.84
2023-05-05T22:13:49.897Z,101697.47
2023-05-05T22:16:19.823Z,101700.91
2023-05-05T22:18:46.797Z,101696.69
2023-05-05T22:21:13.590Z,101689.88
2023-05-05T22:23:41.930Z,101697.59
2023-05-05T22:26:09.309Z,101699.97
2023-05-05T22:28:36.125Z,101692.59
2023-05-05T22:31:02.777Z,101688.41
2023-05-05T22:33:29.340Z,101687.84
2023-05-05T22:35:56.124Z,101685.66
2023-05-05T22:38:22.742Z,101680.91
2023-05-05T22:40:49.415Z,101682.59
2023-05-05T22:43:15.943Z,101695.19
2023-05-05T22:45:43.320Z,101695.53
2023-05-05T22:48:10.122Z,101691.44
2023-05-05T22:50:37.363Z,101695.06
2023-05-05T22:53:03.814Z,101690.41
2023-05-05T22:55:30.426Z,101691.44
2023-05-05T22:57:56.862Z,101689.16
2023-05-05T23:00:24.163Z,101684.53
2023-05-05T23:02:50.805Z,101683.19
2023-05-05T23:05:17.415Z,101676.84
2023-05-05T23:07:43.920Z,101679.56
2023-05-05T23:10:10.745Z,101673.19
2023-05-05T23:12:37.264Z,101674.69
2023-05-05T23:15:04.640Z,101677.19
2023-05-05T23:17:31.177Z,101674.00
2023-05-05T23:19:57.838Z,101671.63
2023-05-05T23:22:24.308Z,101676.59
2023-05-05T23:24:50.791Z,101671.72
2023-05-05T23:27:17.288Z,101682.47
2023-05-05T23:29:43.820Z,101690.75
2023-05-05T23:32:10.277Z,101680.47
2023-05-05T23:34:36.773Z,101674.09
2023-05-05T23:37:05.381Z,101682.59
2023-05-05T23:39:34.230Z,101687.94
2023-05-05T23:42:00.742Z,101675.22
2023-05-05T23:44:27.715Z,101679.22
2023-05-05T23:46:54.484Z,101685.78
2023-05-05T23:49:21.132Z,101673.28
2023-05-05T23:51:47.604Z,101674.78
2023-05-05T23:54:14.073Z,101690.56
2023-05-05T23:56:41.087Z,101685.34
2023-05-05T23:59:07.552Z,101690.13
